sensor_id;sensor_type;location;lat;lon;timestamp;temperature;humidity
4755;DHT22;2391;47.212;7.542;2023-07-29T00:02:01;23.10;90.60
4755;DHT22;2391;47.212;7.542;2023-07-29T00:04:27;23.10;90.40
4755;DHT22;2391;47.212;7.542;2023-07-29T00:06:53;23.10;90.60
4755;DHT22;2391;47.212;7.542;2023-07-29T00:09:18;23.10;90.60
4755;DHT22;2391;47.212;7.542;2023-07-29T00:11:44;23.00;90.60
4755;DHT22;2391;47.212;7.542;2023-07-29T00:14:10;23.10;90.60
4755;DHT22;2391;47.212;7.542;2023-07-29T00:16:35;23.10;90.50
4755;DHT22;2391;47.212;7.542;2023-07-29T00:19:02;23.00;90.50
4755;DHT22;2391;47.212;7.542;2023-07-29T00:21:28;23.00;90.50
4755;DHT22;2391;47.212;7.542;2023-07-29T00:23:54;23.00;90.50
4755;DHT22;2391;47.212;7.542;2023-07-29T00:26:21;23.00;90.50
4755;DHT22;2391;47.212;7.542;2023-07-29T00:28:47;23.00;90.50
4755;DHT22;2391;47.212;7.542;2023-07-29T00:31:13;23.00;90.40
4755;DHT22;2391;47.212;7.542;2023-07-29T00:33:38;23.00;90.40
4755;DHT22;2391;47.212;7.542;2023-07-29T00:36:04;23.00;90.40
4755;DHT22;2391;47.212;7.542;2023-07-29T00:38:30;23.00;90.50
4755;DHT22;2391;47.212;7.542;2023-07-29T00:40:57;22.90;90.50
4755;DHT22;2391;47.212;7.542;2023-07-29T00:43:24;22.90;90.60
4755;DHT22;2391;47.212;7.542;2023-07-29T00:45:50;22.80;90.50
4755;DHT22;2391;47.212;7.542;2023-07-29T00:48:15;22.80;90.60
4755;DHT22;2391;47.212;7.542;2023-07-29T00:50:41;22.80;90.50
4755;DHT22;2391;47.212;7.542;2023-07-29T00:53:07;22.80;90.50
4755;DHT22;2391;47.212;7.542;2023-07-29T00:55:33;22.70;90.50
4755;DHT22;2391;47.212;7.542;2023-07-29T00:57:59;22.80;90.60
4755;DHT22;2391;47.212;7.542;2023-07-29T01:00:25;22.80;90.60
4755;DHT22;2391;47.212;7.542;2023-07-29T01:02:51;22.70;90.50
4755;DHT22;2391;47.212;7.542;2023-07-29T01:05:18;22.80;90.50
4755;DHT22;2391;47.212;7.542;2023-07-29T01:08:09;22.80;90.50
4755;DHT22;2391;47.212;7.542;2023-07-29T01:13:30;22.70;90.70
4755;DHT22;2391;47.212;7.542;2023-07-29T01:16:20;22.70;90.80
4755;DHT22;2391;47.212;7.542;2023-07-29T01:18:47;22.70;90.90
4755;DHT22;2391;47.212;7.542;2023-07-29T01:21:14;22.60;90.80
4755;DHT22;2391;47.212;7.542;2023-07-29T01:23:41;22.60;90.90
4755;DHT22;2391;47.212;7.542;2023-07-29T01:26:06;22.60;90.80
4755;DHT22;2391;47.212;7.542;2023-07-29T01:28:32;22.70;90.90
4755;DHT22;2391;47.212;7.542;2023-07-29T01:31:10;22.70;90.90
4755;DHT22;2391;47.212;7.542;2023-07-29T01:33:42;22.70;90.90
4755;DHT22;2391;47.212;7.542;2023-07-29T01:36:13;22.80;91.00
4755;DHT22;2391;47.212;7.542;2023-07-29T01:38:41;22.80;91.10
4755;DHT22;2391;47.212;7.542;2023-07-29T01:41:10;22.70;91.10
4755;DHT22;2391;47.212;7.542;2023-07-29T01:43:37;22.70;91.10
4755;DHT22;2391;47.212;7.542;2023-07-29T01:46:10;22.70;91.20
4755;DHT22;2391;47.212;7.542;2023-07-29T01:48:37;22.80;91.20
4755;DHT22;2391;47.212;7.542;2023-07-29T01:51:03;22.80;91.30
4755;DHT22;2391;47.212;7.542;2023-07-29T01:53:29;22.80;91.20
4755;DHT22;2391;47.212;7.542;2023-07-29T01:55:54;22.70;91.50
4755;DHT22;2391;47.212;7.542;2023-07-29T01:58:22;22.60;91.80
4755;DHT22;2391;47.212;7.542;2023-07-29T02:00:48;22.50;92.10
4755;DHT22;2391;47.212;7.542;2023-07-29T02:03:14;22.50;92.20
4755;DHT22;2391;47.212;7.542;2023-07-29T02:05:39;22.50;92.20
4755;DHT22;2391;47.212;7.542;2023-07-29T02:08:05;22.50;92.20
4755;DHT22;2391;47.212;7.542;2023-07-29T02:10:31;22.60;92.50
4755;DHT22;2391;47.212;7.542;2023-07-29T02:12:57;22.60;92.20
4755;DHT22;2391;47.212;7.542;2023-07-29T02:15:23;22.70;92.10
4755;DHT22;2391;47.212;7.542;2023-07-29T02:17:49;22.70;92.10
4755;DHT22;2391;47.212;7.542;2023-07-29T02:20:16;22.70;92.00
4755;DHT22;2391;47.212;7.542;2023-07-29T02:22:41;22.70;92.00
4755;DHT22;2391;47.212;7.542;2023-07-29T02:25:07;22.70;91.90
4755;DHT22;2391;47.212;7.542;2023-07-29T02:27:33;22.70;92.20
4755;DHT22;2391;47.212;7.542;2023-07-29T02:29:59;22.70;91.90
4755;DHT22;2391;47.212;7.542;2023-07-29T02:32:25;22.70;92.00
4755;DHT22;2391;47.212;7.542;2023-07-29T02:34:50;22.70;91.90
4755;DHT22;2391;47.212;7.542;2023-07-29T02:37:16;22.70;91.90
4755;DHT22;2391;47.212;7.542;2023-07-29T02:39:42;22.70;91.90
4755;DHT22;2391;47.212;7.542;2023-07-29T02:42:08;22.70;91.90
4755;DHT22;2391;47.212;7.542;2023-07-29T02:44:34;22.70;92.00
4755;DHT22;2391;47.212;7.542;2023-07-29T02:46:59;22.70;92.10
4755;DHT22;2391;47.212;7.542;2023-07-29T02:49:25;22.70;92.10
4755;DHT22;2391;47.212;7.542;2023-07-29T02:51:51;22.70;92.20
4755;DHT22;2391;47.212;7.542;2023-07-29T02:54:17;22.70;92.20
4755;DHT22;2391;47.212;7.542;2023-07-29T02:56:42;22.70;92.10
4755;DHT22;2391;47.212;7.542;2023-07-29T02:59:08;22.70;92.10
4755;DHT22;2391;47.212;7.542;2023-07-29T03:01:34;22.70;92.00
4755;DHT22;2391;47.212;7.542;2023-07-29T03:04:00;22.70;92.00
4755;DHT22;2391;47.212;7.542;2023-07-29T03:06:26;22.70;92.10
4755;DHT22;2391;47.212;7.542;2023-07-29T03:08:52;22.70;92.10
4755;DHT22;2391;47.212;7.542;2023-07-29T03:11:18;22.70;92.10
4755;DHT22;2391;47.212;7.542;2023-07-29T03:13:43;22.70;92.00
4755;DHT22;2391;47.212;7.542;2023-07-29T03:16:14;22.70;92.00
4755;DHT22;2391;47.212;7.542;2023-07-29T03:18:41;22.70;92.00
4755;DHT22;2391;47.212;7.542;2023-07-29T03:21:08;22.70;92.10
4755;DHT22;2391;47.212;7.542;2023-07-29T03:23:35;22.70;92.10
4755;DHT22;2391;47.212;7.542;2023-07-29T03:26:02;22.70;92.10
4755;DHT22;2391;47.212;7.542;2023-07-29T03:28:32;22.70;92.10
4755;DHT22;2391;47.212;7.542;2023-07-29T03:30:58;22.70;92.20
4755;DHT22;2391;47.212;7.542;2023-07-29T03:33:25;22.60;92.20
4755;DHT22;2391;47.212;7.542;2023-07-29T03:35:52;22.60;92.30
4755;DHT22;2391;47.212;7.542;2023-07-29T03:38:18;22.60;92.10
4755;DHT22;2391;47.212;7.542;2023-07-29T03:40:44;22.60;92.20
4755;DHT22;2391;47.212;7.542;2023-07-29T03:43:10;22.60;92.20
4755;DHT22;2391;47.212;7.542;2023-07-29T03:45:37;22.60;92.20
4755;DHT22;2391;47.212;7.542;2023-07-29T03:48:04;22.60;92.20
4755;DHT22;2391;47.212;7.542;2023-07-29T03:50:30;22.60;92.10
4755;DHT22;2391;47.212;7.542;2023-07-29T03:52:56;22.60;92.10
4755;DHT22;2391;47.212;7.542;2023-07-29T03:55:25;22.60;92.00
4755;DHT22;2391;47.212;7.542;2023-07-29T03:57:50;22.60;92.00
4755;DHT22;2391;47.212;7.542;2023-07-29T04:00:16;22.60;92.00
4755;DHT22;2391;47.212;7.542;2023-07-29T04:02:42;22.60;92.00
4755;DHT22;2391;47.212;7.542;2023-07-29T04:05:08;22.60;92.20
4755;DHT22;2391;47.212;7.542;2023-07-29T04:07:35;22.50;92.20
4755;DHT22;2391;47.212;7.542;2023-07-29T04:10:01;22.50;92.30
4755;DHT22;2391;47.212;7.542;2023-07-29T04:12:27;22.40;92.10
4755;DHT22;2391;47.212;7.542;2023-07-29T04:14:53;22.50;92.10
4755;DHT22;2391;47.212;7.542;2023-07-29T04:17:19;22.40;92.00
4755;DHT22;2391;47.212;7.542;2023-07-29T04:19:44;22.40;92.10
4755;DHT22;2391;47.212;7.542;2023-07-29T04:22:10;22.40;92.10
4755;DHT22;2391;47.212;7.542;2023-07-29T04:24:36;22.50;92.00
4755;DHT22;2391;47.212;7.542;2023-07-29T04:27:02;22.50;92.00
4755;DHT22;2391;47.212;7.542;2023-07-29T04:29:28;22.40;92.10
4755;DHT22;2391;47.212;7.542;2023-07-29T04:31:54;22.40;92.10
4755;DHT22;2391;47.212;7.542;2023-07-29T04:34:20;22.40;92.10
4755;DHT22;2391;47.212;7.542;2023-07-29T04:36:46;22.40;92.00
4755;DHT22;2391;47.212;7.542;2023-07-29T04:39:12;22.40;92.10
4755;DHT22;2391;47.212;7.542;2023-07-29T04:41:38;22.40;92.10
4755;DHT22;2391;47.212;7.542;2023-07-29T04:44:04;22.40;92.10
4755;DHT22;2391;47.212;7.542;2023-07-29T04:46:29;22.40;92.20
4755;DHT22;2391;47.212;7.542;2023-07-29T04:48:55;22.40;92.30
4755;DHT22;2391;47.212;7.542;2023-07-29T04:51:22;22.40;92.40
4755;DHT22;2391;47.212;7.542;2023-07-29T04:53:47;22.40;92.40
4755;DHT22;2391;47.212;7.542;2023-07-29T04:56:13;22.40;92.20
4755;DHT22;2391;47.212;7.542;2023-07-29T04:58:39;22.40;92.20
4755;DHT22;2391;47.212;7.542;2023-07-29T05:01:05;22.50;92.30
4755;DHT22;2391;47.212;7.542;2023-07-29T05:03:31;22.40;92.30
4755;DHT22;2391;47.212;7.542;2023-07-29T05:05:58;22.40;92.30
4755;DHT22;2391;47.212;7.542;2023-07-29T05:08:26;22.40;92.40
4755;DHT22;2391;47.212;7.542;2023-07-29T05:10:52;22.40;92.40
4755;DHT22;2391;47.212;7.542;2023-07-29T05:13:20;22.50;92.50
4755;DHT22;2391;47.212;7.542;2023-07-29T05:15:47;22.40;92.50
4755;DHT22;2391;47.212;7.542;2023-07-29T05:18:14;22.50;92.50
4755;DHT22;2391;47.212;7.542;2023-07-29T05:20:40;22.50;92.60
4755;DHT22;2391;47.212;7.542;2023-07-29T05:23:05;22.50;92.60
4755;DHT22;2391;47.212;7.542;2023-07-29T05:25:31;22.50;92.60
4755;DHT22;2391;47.212;7.542;2023-07-29T05:27:57;22.40;92.90
4755;DHT22;2391;47.212;7.542;2023-07-29T05:30:22;22.40;92.80
4755;DHT22;2391;47.212;7.542;2023-07-29T05:32:48;22.30;92.90
4755;DHT22;2391;47.212;7.542;2023-07-29T05:35:14;22.30;93.00
4755;DHT22;2391;47.212;7.542;2023-07-29T05:37:40;22.30;93.10
4755;DHT22;2391;47.212;7.542;2023-07-29T05:40:07;22.30;93.10
4755;DHT22;2391;47.212;7.542;2023-07-29T05:42:33;22.20;93.10
4755;DHT22;2391;47.212;7.542;2023-07-29T05:44:59;22.30;93.20
4755;DHT22;2391;47.212;7.542;2023-07-29T05:47:25;22.40;93.20
4755;DHT22;2391;47.212;7.542;2023-07-29T05:49:52;22.40;93.20
4755;DHT22;2391;47.212;7.542;2023-07-29T05:52:17;22.40;93.20
4755;DHT22;2391;47.212;7.542;2023-07-29T05:54:44;22.40;93.10
4755;DHT22;2391;47.212;7.542;2023-07-29T05:57:11;22.50;93.10
4755;DHT22;2391;47.212;7.542;2023-07-29T05:59:37;22.50;93.20
4755;DHT22;2391;47.212;7.542;2023-07-29T06:02:03;22.60;93.30
4755;DHT22;2391;47.212;7.542;2023-07-29T06:04:29;22.60;93.20
4755;DHT22;2391;47.212;7.542;2023-07-29T06:06:54;22.70;93.20
4755;DHT22;2391;47.212;7.542;2023-07-29T06:09:22;22.70;93.40
4755;DHT22;2391;47.212;7.542;2023-07-29T06:11:48;22.70;93.50
4755;DHT22;2391;47.212;7.542;2023-07-29T06:14:14;22.80;93.30
4755;DHT22;2391;47.212;7.542;2023-07-29T06:16:40;22.80;93.40
4755;DHT22;2391;47.212;7.542;2023-07-29T06:19:06;22.90;93.50
4755;DHT22;2391;47.212;7.542;2023-07-29T06:21:34;22.90;93.50
4755;DHT22;2391;47.212;7.542;2023-07-29T06:24:00;23.00;93.40
4755;DHT22;2391;47.212;7.542;2023-07-29T06:26:26;23.00;93.60
4755;DHT22;2391;47.212;7.542;2023-07-29T06:28:51;23.00;93.40
4755;DHT22;2391;47.212;7.542;2023-07-29T06:31:17;23.20;93.50
4755;DHT22;2391;47.212;7.542;2023-07-29T06:33:43;23.30;93.40
4755;DHT22;2391;47.212;7.542;2023-07-29T06:36:08;23.40;93.10
4755;DHT22;2391;47.212;7.542;2023-07-29T06:38:34;23.60;93.30
4755;DHT22;2391;47.212;7.542;2023-07-29T06:41:00;23.70;93.40
4755;DHT22;2391;47.212;7.542;2023-07-29T06:43:25;23.90;93.00
4755;DHT22;2391;47.212;7.542;2023-07-29T06:45:51;24.00;92.80
4755;DHT22;2391;47.212;7.542;2023-07-29T06:48:17;24.10;92.30
4755;DHT22;2391;47.212;7.542;2023-07-29T06:50:44;24.30;92.00
4755;DHT22;2391;47.212;7.542;2023-07-29T06:53:10;24.40;91.70
4755;DHT22;2391;47.212;7.542;2023-07-29T06:55:35;24.40;91.50
4755;DHT22;2391;47.212;7.542;2023-07-29T06:58:01;24.40;91.50
4755;DHT22;2391;47.212;7.542;2023-07-29T07:00:27;24.40;91.40
4755;DHT22;2391;47.212;7.542;2023-07-29T07:02:53;24.30;91.30
4755;DHT22;2391;47.212;7.542;2023-07-29T07:05:19;24.20;91.50
4755;DHT22;2391;47.212;7.542;2023-07-29T07:07:45;24.10;91.60
4755;DHT22;2391;47.212;7.542;2023-07-29T07:10:10;24.10;91.50
4755;DHT22;2391;47.212;7.542;2023-07-29T07:12:36;23.90;91.70
4755;DHT22;2391;47.212;7.542;2023-07-29T07:15:02;23.90;92.20
4755;DHT22;2391;47.212;7.542;2023-07-29T07:17:28;23.80;92.30
4755;DHT22;2391;47.212;7.542;2023-07-29T07:19:53;23.90;92.30
4755;DHT22;2391;47.212;7.542;2023-07-29T07:22:19;24.00;91.90
4755;DHT22;2391;47.212;7.542;2023-07-29T07:24:45;24.00;91.90
4755;DHT22;2391;47.212;7.542;2023-07-29T07:27:11;24.10;92.00
4755;DHT22;2391;47.212;7.542;2023-07-29T07:29:36;24.30;92.00
4755;DHT22;2391;47.212;7.542;2023-07-29T07:32:02;24.40;91.70
4755;DHT22;2391;47.212;7.542;2023-07-29T07:34:28;24.70;91.50
4755;DHT22;2391;47.212;7.542;2023-07-29T07:36:54;24.90;91.60
4755;DHT22;2391;47.212;7.542;2023-07-29T07:39:19;25.10;90.80
4755;DHT22;2391;47.212;7.542;2023-07-29T07:41:46;25.20;90.60
4755;DHT22;2391;47.212;7.542;2023-07-29T07:44:12;25.30;90.50
4755;DHT22;2391;47.212;7.542;2023-07-29T07:46:40;25.40;90.60
4755;DHT22;2391;47.212;7.542;2023-07-29T07:49:06;25.50;90.80
4755;DHT22;2391;47.212;7.542;2023-07-29T07:51:32;25.50;90.70
4755;DHT22;2391;47.212;7.542;2023-07-29T07:53:57;25.50;91.10
4755;DHT22;2391;47.212;7.542;2023-07-29T07:56:23;25.70;90.90
4755;DHT22;2391;47.212;7.542;2023-07-29T07:58:49;25.80;90.40
4755;DHT22;2391;47.212;7.542;2023-07-29T08:01:15;25.90;89.80
4755;DHT22;2391;47.212;7.542;2023-07-29T08:03:40;26.00;90.00
4755;DHT22;2391;47.212;7.542;2023-07-29T08:06:06;26.00;89.00
4755;DHT22;2391;47.212;7.542;2023-07-29T08:08:52;26.00;88.80
4755;DHT22;2391;47.212;7.542;2023-07-29T08:11:17;26.10;88.70
4755;DHT22;2391;47.212;7.542;2023-07-29T08:13:43;26.10;88.60
4755;DHT22;2391;47.212;7.542;2023-07-29T08:16:09;26.10;88.60
4755;DHT22;2391;47.212;7.542;2023-07-29T08:18:34;26.20;89.30
4755;DHT22;2391;47.212;7.542;2023-07-29T08:21:00;26.20;89.10
4755;DHT22;2391;47.212;7.542;2023-07-29T08:23:31;26.20;89.10
4755;DHT22;2391;47.212;7.542;2023-07-29T08:25:59;26.20;88.90
4755;DHT22;2391;47.212;7.542;2023-07-29T08:28:36;26.20;88.70
4755;DHT22;2391;47.212;7.542;2023-07-29T08:31:02;26.20;88.60
4755;DHT22;2391;47.212;7.542;2023-07-29T08:33:28;26.20;89.10
4755;DHT22;2391;47.212;7.542;2023-07-29T08:35:53;26.30;89.20
4755;DHT22;2391;47.212;7.542;2023-07-29T08:38:20;26.30;88.70
4755;DHT22;2391;47.212;7.542;2023-07-29T08:43:20;26.50;88.20
4755;DHT22;2391;47.212;7.542;2023-07-29T08:45:47;26.60;88.80
4755;DHT22;2391;47.212;7.542;2023-07-29T08:48:15;26.50;87.60
4755;DHT22;2391;47.212;7.542;2023-07-29T08:50:44;26.50;88.50
4755;DHT22;2391;47.212;7.542;2023-07-29T08:53:10;26.60;89.10
4755;DHT22;2391;47.212;7.542;2023-07-29T08:55:36;26.70;88.90
4755;DHT22;2391;47.212;7.542;2023-07-29T08:58:02;26.70;88.20
4755;DHT22;2391;47.212;7.542;2023-07-29T09:00:28;26.80;87.90
4755;DHT22;2391;47.212;7.542;2023-07-29T09:02:55;26.80;86.60
4755;DHT22;2391;47.212;7.542;2023-07-29T09:05:21;26.80;87.30
4755;DHT22;2391;47.212;7.542;2023-07-29T09:07:48;26.90;87.40
4755;DHT22;2391;47.212;7.542;2023-07-29T09:10:15;26.90;87.60
4755;DHT22;2391;47.212;7.542;2023-07-29T09:12:41;26.80;87.20
4755;DHT22;2391;47.212;7.542;2023-07-29T09:15:08;26.80;87.80
4755;DHT22;2391;47.212;7.542;2023-07-29T09:17:34;26.70;87.30
4755;DHT22;2391;47.212;7.542;2023-07-29T09:20:00;26.70;85.70
4755;DHT22;2391;47.212;7.542;2023-07-29T09:22:27;26.60;86.30
4755;DHT22;2391;47.212;7.542;2023-07-29T09:24:53;26.50;86.50
4755;DHT22;2391;47.212;7.542;2023-07-29T09:27:29;26.40;86.90
4755;DHT22;2391;47.212;7.542;2023-07-29T09:29:57;26.40;87.70
4755;DHT22;2391;47.212;7.542;2023-07-29T09:32:24;26.40;88.00
4755;DHT22;2391;47.212;7.542;2023-07-29T09:34:50;26.50;88.10
4755;DHT22;2391;47.212;7.542;2023-07-29T09:37:21;26.50;87.80
4755;DHT22;2391;47.212;7.542;2023-07-29T09:39:48;26.70;87.10
4755;DHT22;2391;47.212;7.542;2023-07-29T09:42:19;26.80;87.40
4755;DHT22;2391;47.212;7.542;2023-07-29T09:44:45;26.90;86.50
4755;DHT22;2391;47.212;7.542;2023-07-29T09:47:19;27.00;86.50
4755;DHT22;2391;47.212;7.542;2023-07-29T09:49:46;27.00;85.80
4755;DHT22;2391;47.212;7.542;2023-07-29T09:52:13;27.10;86.10
4755;DHT22;2391;47.212;7.542;2023-07-29T09:54:39;27.20;84.80
4755;DHT22;2391;47.212;7.542;2023-07-29T09:57:06;27.20;85.80
4755;DHT22;2391;47.212;7.542;2023-07-29T09:59:35;27.30;85.60
4755;DHT22;2391;47.212;7.542;2023-07-29T10:02:01;27.40;85.00
4755;DHT22;2391;47.212;7.542;2023-07-29T10:04:29;27.60;84.20
4755;DHT22;2391;47.212;7.542;2023-07-29T10:06:57;27.70;84.10
4755;DHT22;2391;47.212;7.542;2023-07-29T10:09:23;27.70;83.10
4755;DHT22;2391;47.212;7.542;2023-07-29T10:11:50;27.70;82.60
4755;DHT22;2391;47.212;7.542;2023-07-29T10:14:18;27.70;82.40
4755;DHT22;2391;47.212;7.542;2023-07-29T10:16:43;27.70;81.90
4755;DHT22;2391;47.212;7.542;2023-07-29T10:19:11;27.70;82.90
4755;DHT22;2391;47.212;7.542;2023-07-29T10:21:41;27.70;82.50
4755;DHT22;2391;47.212;7.542;2023-07-29T10:24:15;27.70;82.50
4755;DHT22;2391;47.212;7.542;2023-07-29T10:26:40;27.70;82.40
4755;DHT22;2391;47.212;7.542;2023-07-29T10:29:09;27.60;82.30
4755;DHT22;2391;47.212;7.542;2023-07-29T10:31:37;27.50;82.90
4755;DHT22;2391;47.212;7.542;2023-07-29T10:34:05;27.40;82.90
4755;DHT22;2391;47.212;7.542;2023-07-29T10:36:31;27.40;83.10
4755;DHT22;2391;47.212;7.542;2023-07-29T10:38:56;27.40;83.40
4755;DHT22;2391;47.212;7.542;2023-07-29T10:41:22;27.40;82.90
4755;DHT22;2391;47.212;7.542;2023-07-29T10:43:48;27.50;83.00
4755;DHT22;2391;47.212;7.542;2023-07-29T10:51:26;27.50;78.90
4755;DHT22;2391;47.212;7.542;2023-07-29T10:53:58;27.50;76.80
4755;DHT22;2391;47.212;7.542;2023-07-29T10:56:26;27.50;74.80
4755;DHT22;2391;47.212;7.542;2023-07-29T10:58:55;27.40;74.90
4755;DHT22;2391;47.212;7.542;2023-07-29T11:01:29;27.50;73.20
4755;DHT22;2391;47.212;7.542;2023-07-29T11:12:36;27.50;74.10
4755;DHT22;2391;47.212;7.542;2023-07-29T11:17:46;27.80;76.20
4755;DHT22;2391;47.212;7.542;2023-07-29T11:20:14;28.00;77.60
4755;DHT22;2391;47.212;7.542;2023-07-29T11:22:41;28.20;75.80
4755;DHT22;2391;47.212;7.542;2023-07-29T11:25:10;28.30;73.00
4755;DHT22;2391;47.212;7.542;2023-07-29T11:27:36;28.40;73.60
4755;DHT22;2391;47.212;7.542;2023-07-29T11:30:05;28.50;72.30
4755;DHT22;2391;47.212;7.542;2023-07-29T11:32:32;28.50;70.70
4755;DHT22;2391;47.212;7.542;2023-07-29T11:35:02;28.30;70.50
4755;DHT22;2391;47.212;7.542;2023-07-29T11:37:29;28.10;70.10
4755;DHT22;2391;47.212;7.542;2023-07-29T11:39:55;27.90;71.50
4755;DHT22;2391;47.212;7.542;2023-07-29T11:42:20;27.80;71.20
4755;DHT22;2391;47.212;7.542;2023-07-29T11:44:46;27.60;72.00
4755;DHT22;2391;47.212;7.542;2023-07-29T11:47:12;27.50;71.30
4755;DHT22;2391;47.212;7.542;2023-07-29T11:49:40;27.40;71.80
4755;DHT22;2391;47.212;7.542;2023-07-29T11:52:07;27.30;71.90
4755;DHT22;2391;47.212;7.542;2023-07-29T11:54:38;27.20;73.10
4755;DHT22;2391;47.212;7.542;2023-07-29T11:57:06;27.00;73.90
4755;DHT22;2391;47.212;7.542;2023-07-29T11:59:36;26.90;75.60
4755;DHT22;2391;47.212;7.542;2023-07-29T12:02:14;26.90;77.20
4755;DHT22;2391;47.212;7.542;2023-07-29T12:04:41;26.90;77.90
4755;DHT22;2391;47.212;7.542;2023-07-29T12:07:09;26.80;77.70
4755;DHT22;2391;47.212;7.542;2023-07-29T12:09:36;26.80;77.70
4755;DHT22;2391;47.212;7.542;2023-07-29T12:12:03;26.70;78.10
4755;DHT22;2391;47.212;7.542;2023-07-29T12:14:29;26.70;78.10
4755;DHT22;2391;47.212;7.542;2023-07-29T12:16:55;26.60;78.50
4755;DHT22;2391;47.212;7.542;2023-07-29T12:19:21;26.50;79.30
4755;DHT22;2391;47.212;7.542;2023-07-29T12:21:48;26.40;80.20
4755;DHT22;2391;47.212;7.542;2023-07-29T12:24:15;26.20;81.00
4755;DHT22;2391;47.212;7.542;2023-07-29T12:26:41;26.10;81.70
4755;DHT22;2391;47.212;7.542;2023-07-29T12:29:19;26.10;81.70
4755;DHT22;2391;47.212;7.542;2023-07-29T12:31:48;26.00;81.30
4755;DHT22;2391;47.212;7.542;2023-07-29T12:34:21;25.90;80.70
4755;DHT22;2391;47.212;7.542;2023-07-29T12:36:49;25.90;80.40
4755;DHT22;2391;47.212;7.542;2023-07-29T12:39:16;25.90;80.80
4755;DHT22;2391;47.212;7.542;2023-07-29T12:41:43;25.90;80.80
4755;DHT22;2391;47.212;7.542;2023-07-29T12:44:09;25.90;81.10
4755;DHT22;2391;47.212;7.542;2023-07-29T12:46:34;25.90;81.10
4755;DHT22;2391;47.212;7.542;2023-07-29T12:49:00;25.80;81.80
4755;DHT22;2391;47.212;7.542;2023-07-29T12:51:26;25.70;82.40
4755;DHT22;2391;47.212;7.542;2023-07-29T12:53:53;25.70;82.80
4755;DHT22;2391;47.212;7.542;2023-07-29T12:56:19;25.70;83.10
4755;DHT22;2391;47.212;7.542;2023-07-29T12:58:45;25.70;84.20
4755;DHT22;2391;47.212;7.542;2023-07-29T13:01:11;25.70;84.60
4755;DHT22;2391;47.212;7.542;2023-07-29T13:03:41;25.60;85.10
4755;DHT22;2391;47.212;7.542;2023-07-29T13:06:07;25.60;85.50
4755;DHT22;2391;47.212;7.542;2023-07-29T13:08:33;25.50;85.30
4755;DHT22;2391;47.212;7.542;2023-07-29T13:10:58;25.60;85.50
4755;DHT22;2391;47.212;7.542;2023-07-29T13:13:24;25.50;85.30
4755;DHT22;2391;47.212;7.542;2023-07-29T13:15:50;25.60;85.30
4755;DHT22;2391;47.212;7.542;2023-07-29T13:18:16;25.70;85.30
4755;DHT22;2391;47.212;7.542;2023-07-29T13:20:42;25.70;85.20
4755;DHT22;2391;47.212;7.542;2023-07-29T13:23:07;25.70;84.80
4755;DHT22;2391;47.212;7.542;2023-07-29T13:25:33;25.70;86.30
4755;DHT22;2391;47.212;7.542;2023-07-29T13:27:59;25.60;86.60
4755;DHT22;2391;47.212;7.542;2023-07-29T13:30:25;25.60;87.90
4755;DHT22;2391;47.212;7.542;2023-07-29T13:32:50;25.70;88.10
4755;DHT22;2391;47.212;7.542;2023-07-29T13:35:16;25.70;88.50
4755;DHT22;2391;47.212;7.542;2023-07-29T13:37:42;25.70;89.20
4755;DHT22;2391;47.212;7.542;2023-07-29T13:40:08;25.70;90.00
4755;DHT22;2391;47.212;7.542;2023-07-29T13:42:34;25.70;90.00
4755;DHT22;2391;47.212;7.542;2023-07-29T13:45:00;25.70;90.30
4755;DHT22;2391;47.212;7.542;2023-07-29T13:47:26;25.60;89.70
4755;DHT22;2391;47.212;7.542;2023-07-29T13:49:52;25.50;90.10
4755;DHT22;2391;47.212;7.542;2023-07-29T13:52:17;25.40;89.70
4755;DHT22;2391;47.212;7.542;2023-07-29T13:54:43;25.30;90.00
4755;DHT22;2391;47.212;7.542;2023-07-29T13:57:09;25.30;90.20
4755;DHT22;2391;47.212;7.542;2023-07-29T13:59:36;25.20;90.20
4755;DHT22;2391;47.212;7.542;2023-07-29T14:02:05;25.10;90.20
4755;DHT22;2391;47.212;7.542;2023-07-29T14:04:32;25.10;90.50
4755;DHT22;2391;47.212;7.542;2023-07-29T14:06:58;25.10;90.80
4755;DHT22;2391;47.212;7.542;2023-07-29T14:09:24;25.10;91.00
4755;DHT22;2391;47.212;7.542;2023-07-29T14:11:50;25.20;91.10
4755;DHT22;2391;47.212;7.542;2023-07-29T14:14:16;25.20;91.00
4755;DHT22;2391;47.212;7.542;2023-07-29T14:16:42;25.10;91.00
4755;DHT22;2391;47.212;7.542;2023-07-29T14:19:07;25.00;90.70
4755;DHT22;2391;47.212;7.542;2023-07-29T14:21:33;24.80;90.60
4755;DHT22;2391;47.212;7.542;2023-07-29T14:23:59;24.60;90.60
4755;DHT22;2391;47.212;7.542;2023-07-29T14:26:27;24.50;91.00
4755;DHT22;2391;47.212;7.542;2023-07-29T14:28:52;24.40;91.20
4755;DHT22;2391;47.212;7.542;2023-07-29T14:31:18;24.30;91.30
4755;DHT22;2391;47.212;7.542;2023-07-29T14:33:44;24.20;91.20
4755;DHT22;2391;47.212;7.542;2023-07-29T14:36:10;24.20;91.60
4755;DHT22;2391;47.212;7.542;2023-07-29T14:38:36;24.20;91.40
4755;DHT22;2391;47.212;7.542;2023-07-29T14:41:03;24.20;91.50
4755;DHT22;2391;47.212;7.542;2023-07-29T14:43:30;24.20;91.90
4755;DHT22;2391;47.212;7.542;2023-07-29T14:45:56;24.20;91.70
4755;DHT22;2391;47.212;7.542;2023-07-29T14:48:23;24.20;91.70
4755;DHT22;2391;47.212;7.542;2023-07-29T14:50:49;24.20;92.00
4755;DHT22;2391;47.212;7.542;2023-07-29T14:53:14;24.20;91.80
4755;DHT22;2391;47.212;7.542;2023-07-29T14:55:40;24.30;91.90
4755;DHT22;2391;47.212;7.542;2023-07-29T14:58:06;24.40;92.00
4755;DHT22;2391;47.212;7.542;2023-07-29T15:00:32;24.40;92.10
4755;DHT22;2391;47.212;7.542;2023-07-29T15:02:59;24.30;92.30
4755;DHT22;2391;47.212;7.542;2023-07-29T15:05:25;24.30;92.40
4755;DHT22;2391;47.212;7.542;2023-07-29T15:07:50;24.30;92.70
4755;DHT22;2391;47.212;7.542;2023-07-29T15:10:16;24.30;93.00
4755;DHT22;2391;47.212;7.542;2023-07-29T15:12:43;24.30;93.00
4755;DHT22;2391;47.212;7.542;2023-07-29T15:15:10;24.40;93.10
4755;DHT22;2391;47.212;7.542;2023-07-29T15:17:36;24.40;93.00
4755;DHT22;2391;47.212;7.542;2023-07-29T15:20:03;24.40;93.10
4755;DHT22;2391;47.212;7.542;2023-07-29T15:22:29;24.50;93.20
4755;DHT22;2391;47.212;7.542;2023-07-29T15:24:57;24.40;93.20
4755;DHT22;2391;47.212;7.542;2023-07-29T15:27:27;24.50;93.50
4755;DHT22;2391;47.212;7.542;2023-07-29T15:29:53;24.50;93.50
4755;DHT22;2391;47.212;7.542;2023-07-29T15:32:19;24.50;93.50
4755;DHT22;2391;47.212;7.542;2023-07-29T15:34:45;24.50;93.50
4755;DHT22;2391;47.212;7.542;2023-07-29T15:37:11;24.50;93.60
4755;DHT22;2391;47.212;7.542;2023-07-29T15:39:37;24.60;93.60
4755;DHT22;2391;47.212;7.542;2023-07-29T15:42:03;24.70;93.50
4755;DHT22;2391;47.212;7.542;2023-07-29T15:44:29;24.70;93.50
4755;DHT22;2391;47.212;7.542;2023-07-29T15:46:55;24.80;93.40
4755;DHT22;2391;47.212;7.542;2023-07-29T15:49:23;24.90;93.40
4755;DHT22;2391;47.212;7.542;2023-07-29T15:51:49;25.00;93.40
4755;DHT22;2391;47.212;7.542;2023-07-29T15:54:15;25.00;93.10
4755;DHT22;2391;47.212;7.542;2023-07-29T15:56:41;24.90;92.40
4755;DHT22;2391;47.212;7.542;2023-07-29T15:59:07;24.70;92.40
4755;DHT22;2391;47.212;7.542;2023-07-29T16:01:33;24.50;92.60
4755;DHT22;2391;47.212;7.542;2023-07-29T16:03:59;24.40;92.60
4755;DHT22;2391;47.212;7.542;2023-07-29T16:06:26;24.40;92.70
4755;DHT22;2391;47.212;7.542;2023-07-29T16:08:52;24.30;92.80
4755;DHT22;2391;47.212;7.542;2023-07-29T16:11:19;24.30;92.90
4755;DHT22;2391;47.212;7.542;2023-07-29T16:13:46;24.40;93.00
4755;DHT22;2391;47.212;7.542;2023-07-29T16:16:12;24.40;92.90
4755;DHT22;2391;47.212;7.542;2023-07-29T16:18:38;24.40;92.30
4755;DHT22;2391;47.212;7.542;2023-07-29T16:21:04;24.30;92.10